createdAt,value
2023-05-07T00:02:20.145Z,3.15
2023-05-07T00:04:47.436Z,2.83
2023-05-07T00:07:14.602Z,3.08
2023-05-07T00:09:41.680Z,2.92
2023-05-07T00:12:09.239Z,3.03
2023-05-07T00:14:36.382Z,2.80
2023-05-07T00:17:03.463Z,3.38
2023-05-07T00:19:30.615Z,2.95
2023-05-07T00:21:57.980Z,2.75
2023-05-07T00:24:25.531Z,3.38
2023-05-07T00:26:53.644Z,3.40
2023-05-07T00:29:21.068Z,2.40
2023-05-07T00:31:48.211Z,2.60
2023-05-07T00:34:15.309Z,3.40
2023-05-07T00:36:42.513Z,2.53
2023-05-07T00:39:09.782Z,2.83
2023-05-07T00:41:36.907Z,2.95
2023-05-07T00:44:04.030Z,3.00
2023-05-07T00:46:32.360Z,2.80
2023-05-07T00:48:59.655Z,2.33
2023-05-07T00:51:28.370Z,2.70
2023-05-07T00:53:55.570Z,2.53
2023-05-07T00:56:23.190Z,2.92
2023-05-07T00:58:50.761Z,2.63
2023-05-07T01:01:17.919Z,2.80
2023-05-07T01:03:45.408Z,2.83
2023-05-07T01:06:13.918Z,2.60
2023-05-07T01:08:42.489Z,2.53
2023-05-07T01:11:09.700Z,2.97
2023-05-07T01:13:37.181Z,2.90
2023-05-07T01:16:04.861Z,2.80
2023-05-07T01:18:32.070Z,3.35
2023-05-07T01:21:01.147Z,2.80
2023-05-07T01:23:29.262Z,3.22
2023-05-07T01:25:56.718Z,2.80
2023-05-07T01:28:23.968Z,2.85
2023-05-07T01:30:52.813Z,3.05
2023-05-07T01:33:22.870Z,3.13
2023-05-07T01:35:51.122Z,2.50
2023-05-07T01:38:18.678Z,2.38
2023-05-07T01:40:45.767Z,2.50
2023-05-07T01:43:12.904Z,2.50
2023-05-07T01:45:40.735Z,2.15
2023-05-07T01:48:08.280Z,2.45
2023-05-07T01:50:35.721Z,2.38
2023-05-07T01:53:03.545Z,2.70
2023-05-07T01:55:30.628Z,2.72
2023-05-07T01:57:57.768Z,2.25
2023-05-07T02:00:24.929Z,3.05
2023-05-07T02:02:53.729Z,2.83
2023-05-07T02:05:20.963Z,2.58
2023-05-07T02:07:48.044Z,2.90
2023-05-07T02:10:15.204Z,2.30
2023-05-07T02:12:43.699Z,2.42
2023-05-07T02:15:11.538Z,2.30
2023-05-07T02:17:41.535Z,2.65
2023-05-07T02:20:14.357Z,2.50
2023-05-07T02:22:41.532Z,2.30
2023-05-07T02:25:08.797Z,2.63
2023-05-07T02:27:36.031Z,2.65
2023-05-07T02:30:03.165Z,2.42
2023-05-07T02:32:30.436Z,2.13
2023-05-07T02:34:57.606Z,2.50
2023-05-07T02:37:24.672Z,2.70
2023-05-07T02:39:51.730Z,2.47
2023-05-07T02:42:19.102Z,2.38
2023-05-07T02:44:46.198Z,2.60
2023-05-07T02:47:14.083Z,2.50
2023-05-07T02:49:41.257Z,2.22
2023-05-07T02:52:08.825Z,2.53
2023-05-07T02:54:35.870Z,2.78
2023-05-07T02:57:03.245Z,3.10
2023-05-07T02:59:30.345Z,2.90
2023-05-07T03:01:57.539Z,2.70
2023-05-07T03:04:24.808Z,3.45
2023-05-07T03:06:51.945Z,2.83
2023-05-07T03:09:19.077Z,3.00
2023-05-07T03:11:46.191Z,3.20
2023-05-07T03:14:13.291Z,2.90
2023-05-07T03:16:40.582Z,3.10
2023-05-07T03:19:07.805Z,2.95
2023-05-07T03:21:35.313Z,2.58
2023-05-07T03:24:02.416Z,2.60
2023-05-07T03:26:29.502Z,3.15
2023-05-07T03:28:56.790Z,3.22
2023-05-07T03:31:23.944Z,3.08
2023-05-07T03:33:58.698Z,3.42
2023-05-07T03:36:27.847Z,3.40
2023-05-07T03:38:55.047Z,3.22
2023-05-07T03:41:22.197Z,2.72
2023-05-07T03:43:49.360Z,3.20
2023-05-07T03:46:16.457Z,2.80
2023-05-07T03:48:43.650Z,2.75
2023-05-07T03:51:10.727Z,2.90
2023-05-07T03:53:37.800Z,2.35
2023-05-07T03:56:05.069Z,2.67
2023-05-07T03:58:32.172Z,2.20
2023-05-07T04:00:59.277Z,2.38
2023-05-07T04:03:26.461Z,2.47
2023-05-07T04:05:53.693Z,2.55
2023-05-07T04:08:20.794Z,2.67
2023-05-07T04:10:47.978Z,2.60
2023-05-07T04:13:15.357Z,2.75
2023-05-07T04:15:42.493Z,2.70
2023-05-07T04:18:09.684Z,2.25
2023-05-07T04:20:37.710Z,2.70
2023-05-07T04:23:04.791Z,2.65
2023-05-07T04:25:31.959Z,3.00
2023-05-07T04:27:59.600Z,2.78
2023-05-07T04:30:26.777Z,2.90
2023-05-07T04:32:54.178Z,2.53
2023-05-07T04:35:21.278Z,3.22
2023-05-07T04:37:48.447Z,2.50
2023-05-07T04:40:15.733Z,2.78
2023-05-07T04:42:42.781Z,2.70
2023-05-07T04:45:11.228Z,2.22
2023-05-07T04:47:38.368Z,2.65
2023-05-07T04:50:05.756Z,2.85
2023-05-07T04:52:32.842Z,2.85
2023-05-07T04:55:02.954Z,2.90
2023-05-07T04:57:30.165Z,2.90
2023-05-07T04:59:57.214Z,2.67
2023-05-07T05:02:24.385Z,2.90
2023-05-07T05:04:51.518Z,2.55
2023-05-07T05:07:18.587Z,2.80
2023-05-07T05:09:45.967Z,3.08
2023-05-07T05:12:13.064Z,2.75
2023-05-07T05:14:40.137Z,2.97
2023-05-07T05:17:07.276Z,3.03
2023-05-07T05:19:34.319Z,3.25
2023-05-07T05:22:02.111Z,2.72
2023-05-07T05:24:29.454Z,2.65
2023-05-07T05:26:56.615Z,2.88
2023-05-07T05:29:23.799Z,3.53
2023-05-07T05:31:50.925Z,3.30
2023-05-07T05:34:20.520Z,3.10
2023-05-07T05:36:47.614Z,2.65
2023-05-07T05:39:15.157Z,2.92
2023-05-07T05:41:42.265Z,2.83
2023-05-07T05:44:09.358Z,2.40
2023-05-07T05:46:37.286Z,2.97
2023-05-07T05:49:04.502Z,2.33
2023-05-07T05:51:31.665Z,2.65
2023-05-07T05:53:58.861Z,2.78
2023-05-07T05:56:26.766Z,2.83
2023-05-07T05:58:53.865Z,2.95
2023-05-07T06:01:21.165Z,2.92
2023-05-07T06:03:48.224Z,2.45
2023-05-07T06:06:15.586Z,2.85
2023-05-07T06:08:42.939Z,3.17
2023-05-07T06:11:10.010Z,2.47
2023-05-07T06:13:37.122Z,2.17
2023-05-07T06:16:04.370Z,2.92
2023-05-07T06:18:31.454Z,2.50
2023-05-07T06:20:58.963Z,2.65
2023-05-07T06:23:26.141Z,2.72
2023-05-07T06:25:53.457Z,2.13
2023-05-07T06:28:20.555Z,2.67
2023-05-07T06:30:48.229Z,2.65
2023-05-07T06:33:15.306Z,2.50
2023-05-07T06:35:42.353Z,2.67
2023-05-07T06:38:09.512Z,2.35
2023-05-07T06:40:36.617Z,2.55
2023-05-07T06:43:03.676Z,3.08
2023-05-07T06:45:30.756Z,2.40
2023-05-07T06:47:57.852Z,2.63
2023-05-07T06:50:24.995Z,2.95
2023-05-07T06:52:52.190Z,2.60
2023-05-07T06:55:20.283Z,2.75
2023-05-07T06:57:47.354Z,2.60
2023-05-07T07:00:14.824Z,2.38
2023-05-07T07:02:42.225Z,2.25
2023-05-07T07:05:09.434Z,2.47
2023-05-07T07:07:36.687Z,2.30
2023-05-07T07:10:05.742Z,3.00
2023-05-07T07:12:32.794Z,6.07
2023-05-07T07:14:59.952Z,3.97
2023-05-07T07:17:27.033Z,3.70
2023-05-07T07:19:54.117Z,2.85
2023-05-07T07:22:21.226Z,2.22
2023-05-07T07:24:48.276Z,2.83
2023-05-07T07:27:15.327Z,2.60
2023-05-07T07:29:42.430Z,2.10
2023-05-07T07:32:09.922Z,1.98
2023-05-07T07:34:37.040Z,1.90
2023-05-07T07:37:07.085Z,1.63
2023-05-07T07:39:34.686Z,1.67
2023-05-07T07:42:01.785Z,1.58
2023-05-07T07:44:30.064Z,1.65
2023-05-07T07:46:57.201Z,1.60
2023-05-07T07:49:24.358Z,2.10
2023-05-07T07:51:52.169Z,2.22
2023-05-07T07:54:19.270Z,1.98
2023-05-07T07:56:46.332Z,1.50
2023-05-07T07:59:14.921Z,1.70
2023-05-07T08:01:42.192Z,1.73
2023-05-07T08:04:09.394Z,1.60
2023-05-07T08:06:36.540Z,2.03
2023-05-07T08:09:03.831Z,2.22
2023-05-07T08:11:30.910Z,1.63
2023-05-07T08:13:58.182Z,1.55
2023-05-07T08:16:25.346Z,1.60
2023-05-07T08:18:52.417Z,1.45
2023-05-07T08:21:19.569Z,1.55
2023-05-07T08:23:46.642Z,1.50
2023-05-07T08:26:13.790Z,1.48
2023-05-07T08:28:41.006Z,1.60
2023-05-07T08:31:08.126Z,1.40
2023-05-07T08:33:35.407Z,1.90
2023-05-07T08:36:02.528Z,1.20
2023-05-07T08:38:29.673Z,1.80
2023-05-07T08:40:56.762Z,1.70
2023-05-07T08:43:25.428Z,1.60
2023-05-07T08:45:56.095Z,1.75
2023-05-07T08:48:23.964Z,1.67
2023-05-07T08:50:51.295Z,1.58
2023-05-07T08:53:18.466Z,1.48
2023-05-07T08:55:46.211Z,1.60
2023-05-07T08:58:13.370Z,1.70
2023-05-07T09:00:41.617Z,1.67
2023-05-07T09:03:08.885Z,1.80
2023-05-07T09:05:37.005Z,1.65
2023-05-07T09:08:04.430Z,1.30
2023-05-07T09:10:31.566Z,1.85
2023-05-07T09:12:58.643Z,1.80
2023-05-07T09:15:26.111Z,1.70
2023-05-07T09:17:53.272Z,1.65
2023-05-07T09:20:20.496Z,1.40
2023-05-07T09:22:47.602Z,1.48
2023-05-07T09:25:14.835Z,1.40
2023-05-07T09:27:43.280Z,1.38
2023-05-07T09:30:11.011Z,1.27
2023-05-07T09:32:41.264Z,1.48
2023-05-07T09:35:16.985Z,1.53
2023-05-07T09:37:44.189Z,1.40
2023-05-07T09:40:22.153Z,1.55
2023-05-07T09:42:50.618Z,1.42
2023-05-07T09:45:18.204Z,1.05
2023-05-07T09:47:46.022Z,1.20
2023-05-07T09:50:14.298Z,1.30
2023-05-07T09:52:42.364Z,1.40
2023-05-07T09:55:09.799Z,1.38
2023-05-07T09:57:37.789Z,1.35
2023-05-07T10:00:05.345Z,1.50
2023-05-07T10:02:33.545Z,1.33
2023-05-07T10:05:01.482Z,1.55
2023-05-07T10:07:28.904Z,1.10
2023-05-07T10:09:56.527Z,1.00
2023-05-07T10:12:25.046Z,1.20
2023-05-07T10:14:52.957Z,1.05
2023-05-07T10:17:20.989Z,1.50
2023-05-07T10:19:48.155Z,1.23
2023-05-07T10:22:15.792Z,1.70
2023-05-07T10:24:43.185Z,1.30
2023-05-07T10:27:15.266Z,1.50
2023-05-07T10:29:51.337Z,1.77
2023-05-07T10:32:37.104Z,1.30
2023-05-07T10:35:05.419Z,1.50
2023-05-07T10:37:32.727Z,1.35
2023-05-07T10:39:59.835Z,1.30
2023-05-07T10:42:27.192Z,1.50
2023-05-07T10:44:54.364Z,1.50
2023-05-07T10:47:21.591Z,4.28
2023-05-07T10:49:48.720Z,1.40
2023-05-07T10:52:19.699Z,1.52
2023-05-07T10:54:47.370Z,1.73
2023-05-07T10:57:36.598Z,1.50
2023-05-07T11:00:04.939Z,1.35
2023-05-07T11:02:50.999Z,1.63
2023-05-07T11:05:22.138Z,1.42
2023-05-07T11:10:16.325Z,1.23
2023-05-07T11:12:43.642Z,1.50
2023-05-07T11:15:16.598Z,1.30
2023-05-07T11:17:56.585Z,1.60
2023-05-07T11:20:44.383Z,1.38
2023-05-07T11:23:30.199Z,1.30
2023-05-07T11:26:07.122Z,1.40
2023-05-07T11:28:41.467Z,1.40
2023-05-07T11:31:09.111Z,1.20
2023-05-07T11:33:36.830Z,1.08
2023-05-07T11:36:04.637Z,1.33
2023-05-07T11:38:32.100Z,1.40
2023-05-07T11:41:01.635Z,1.10
2023-05-07T11:43:28.920Z,1.13
2023-05-07T11:45:56.045Z,1.40
2023-05-07T11:48:23.921Z,1.58
2023-05-07T11:50:54.490Z,1.52
2023-05-07T11:53:22.068Z,1.38
2023-05-07T11:55:49.136Z,1.40
2023-05-07T11:58:22.109Z,1.20
2023-05-07T12:00:52.753Z,1.23
2023-05-07T12:03:20.150Z,1.20
2023-05-07T12:05:48.041Z,1.30
2023-05-07T12:08:18.622Z,1.10
2023-05-07T12:10:46.137Z,1.30
2023-05-07T12:13:23.597Z,1.17
2023-05-07T12:15:52.460Z,1.10
2023-05-07T12:18:19.577Z,1.20
2023-05-07T12:20:47.017Z,1.25
2023-05-07T12:23:14.539Z,1.50
2023-05-07T12:25:47.492Z,1.40
2023-05-07T12:28:16.549Z,1.38
2023-05-07T12:30:47.215Z,1.20
2023-05-07T12:33:17.676Z,1.45
2023-05-07T12:35:45.050Z,1.10
2023-05-07T12:38:13.494Z,1.13
2023-05-07T12:40:45.132Z,1.30
2023-05-07T12:43:22.075Z,1.23
2023-05-07T12:45:51.304Z,1.30
2023-05-07T12:48:18.477Z,1.55
2023-05-07T12:50:45.612Z,1.58
2023-05-07T12:53:13.905Z,1.10
2023-05-07T12:55:48.643Z,1.30
2023-05-07T12:58:28.331Z,1.30
2023-05-07T13:00:55.992Z,1.20
2023-05-07T13:03:33.307Z,1.20
2023-05-07T13:06:01.645Z,1.33
2023-05-07T13:08:32.734Z,1.10
2023-05-07T13:11:01.302Z,1.58
2023-05-07T13:13:30.965Z,1.33
2023-05-07T13:18:27.555Z,1.63
2023-05-07T13:20:55.726Z,1.35
2023-05-07T13:23:22.896Z,1.40
2023-05-07T13:25:50.567Z,1.55
2023-05-07T13:28:18.072Z,1.08
2023-05-07T13:30:45.450Z,1.30
2023-05-07T13:33:12.545Z,1.30
2023-05-07T13:35:39.932Z,1.58
2023-05-07T13:38:07.054Z,2.35
2023-05-07T13:40:34.184Z,2.58
2023-05-07T13:43:03.348Z,2.15
2023-05-07T13:45:31.198Z,1.50
2023-05-07T13:47:59.180Z,1.27
2023-05-07T13:50:28.090Z,1.30
2023-05-07T13:52:55.365Z,1.25
2023-05-07T13:55:23.961Z,1.70
2023-05-07T13:57:56.990Z,1.30
2023-05-07T14:00:24.119Z,1.50
2023-05-07T14:02:51.267Z,1.40
2023-05-07T14:05:18.512Z,1.58
2023-05-07T14:07:45.848Z,1.20
2023-05-07T14:10:14.235Z,1.20
2023-05-07T14:12:41.742Z,2.33
2023-05-07T14:15:09.163Z,2.22
2023-05-07T14:17:36.514Z,1.50
2023-05-07T14:20:03.855Z,1.40
2023-05-07T14:22:30.982Z,1.52
2023-05-07T14:25:06.329Z,1.38
2023-05-07T14:27:34.366Z,1.42
2023-05-07T14:30:01.656Z,1.63
2023-05-07T14:32:28.738Z,1.38
2023-05-07T14:34:55.937Z,1.70
2023-05-07T14:37:23.038Z,1.33
2023-05-07T14:39:50.991Z,1.20
2023-05-07T14:42:18.684Z,1.65
2023-05-07T14:44:46.586Z,1.25
2023-05-07T14:47:14.116Z,1.40
2023-05-07T14:49:41.868Z,1.70
2023-05-07T14:52:11.125Z,1.50
2023-05-07T14:54:39.294Z,2.20
2023-05-07T14:57:07.104Z,1.77
2023-05-07T14:59:34.288Z,1.80
2023-05-07T15:02:03.835Z,1.85
2023-05-07T15:06:59.677Z,1.70
2023-05-07T15:09:26.779Z,1.50
2023-05-07T15:11:53.885Z,1.60
2023-05-07T15:14:22.838Z,1.88
2023-05-07T15:16:50.871Z,1.63
2023-05-07T15:19:18.203Z,1.67
2023-05-07T15:21:45.521Z,1.50
2023-05-07T15:24:12.623Z,1.52
2023-05-07T15:26:39.745Z,1.73
2023-05-07T15:29:11.001Z,1.92
2023-05-07T15:31:42.490Z,1.63
2023-05-07T15:36:36.623Z,1.60
2023-05-07T15:39:05.460Z,1.33
2023-05-07T15:41:32.585Z,1.30
2023-05-07T15:43:59.670Z,1.52
2023-05-07T15:46:27.363Z,1.83
2023-05-07T15:48:54.920Z,1.38
2023-05-07T15:51:22.164Z,1.40
2023-05-07T15:53:49.340Z,1.90
2023-05-07T15:56:16.461Z,1.70
2023-05-07T15:58:43.518Z,1.67
2023-05-07T16:01:10.795Z,1.60
2023-05-07T16:03:39.184Z,2.03
2023-05-07T16:06:06.530Z,1.77
2023-05-07T16:08:34.077Z,2.00
2023-05-07T16:11:01.202Z,1.70
2023-05-07T16:13:28.340Z,1.42
2023-05-07T16:15:58.544Z,1.92
2023-05-07T16:18:25.812Z,1.90
2023-05-07T16:20:53.126Z,2.10
2023-05-07T16:23:20.328Z,1.88
2023-05-07T16:25:47.432Z,1.92
2023-05-07T16:28:15.024Z,2.35
2023-05-07T16:30:43.076Z,2.20
2023-05-07T16:33:10.597Z,2.15
2023-05-07T16:35:37.722Z,1.88
2023-05-07T16:38:10.116Z,2.30
2023-05-07T16:40:40.408Z,2.10
2023-05-07T16:43:07.622Z,1.60
2023-05-07T16:45:34.822Z,1.67
2023-05-07T16:48:03.221Z,2.22
2023-05-07T16:50:30.951Z,1.90
2023-05-07T16:52:58.075Z,2.08
2023-05-07T16:55:25.366Z,2.30
2023-05-07T16:57:52.497Z,2.63
2023-05-07T17:00:19.812Z,2.50
2023-05-07T17:02:46.993Z,2.40
2023-05-07T17:05:14.790Z,2.42
2023-05-07T17:07:42.229Z,2.40
2023-05-07T17:10:09.569Z,2.70
2023-05-07T17:12:37.795Z,2.42
2023-05-07T17:15:05.693Z,2.70
2023-05-07T17:17:32.975Z,2.22
2023-05-07T17:20:00.332Z,2.00
2023-05-07T17:22:28.051Z,2.08
2023-05-07T17:24:55.272Z,1.83
2023-05-07T17:27:22.460Z,1.90
2023-05-07T17:29:49.725Z,1.90
2023-05-07T17:32:16.828Z,1.67
2023-05-07T17:34:43.974Z,1.83
2023-05-07T17:37:11.199Z,1.73
2023-05-07T17:39:38.303Z,1.80
2023-05-07T17:42:05.492Z,1.77
2023-05-07T17:44:33.815Z,2.03
2023-05-07T17:47:00.955Z,1.70
2023-05-07T17:49:28.298Z,1.70
2023-05-07T17:51:55.940Z,1.73
2023-05-07T17:54:26.828Z,1.90
2023-05-07T17:56:54.228Z,1.63
2023-05-07T17:59:21.373Z,1.80
2023-05-07T18:01:48.594Z,2.30
2023-05-07T18:04:15.801Z,1.60
2023-05-07T18:06:42.971Z,1.70
2023-05-07T18:09:10.340Z,1.77
2023-05-07T18:11:37.848Z,1.77
2023-05-07T18:14:05.157Z,2.33
2023-05-07T18:16:32.411Z,1.80
2023-05-07T18:18:59.687Z,1.98
2023-05-07T18:21:27.250Z,1.80
2023-05-07T18:23:54.443Z,1.52
2023-05-07T18:26:21.619Z,1.98
2023-05-07T18:28:48.963Z,1.48
2023-05-07T18:31:16.151Z,1.65
2023-05-07T18:33:43.401Z,1.80
2023-05-07T18:36:10.781Z,1.80
2023-05-07T18:38:38.944Z,1.48
2023-05-07T18:41:06.616Z,2.05
2023-05-07T18:43:34.176Z,2.03
2023-05-07T18:46:01.816Z,1.73
2023-05-07T18:48:29.015Z,1.85
2023-05-07T18:50:56.918Z,1.80
2023-05-07T18:53:24.412Z,1.70
2023-05-07T18:55:52.070Z,1.63
2023-05-07T18:58:20.101Z,2.08
2023-05-07T19:00:50.770Z,1.75
2023-05-07T19:03:17.923Z,1.88
2023-05-07T19:05:45.551Z,1.67
2023-05-07T19:08:12.768Z,1.70
2023-05-07T19:10:39.905Z,1.77
2023-05-07T19:13:07.236Z,1.70
2023-05-07T19:15:34.573Z,1.60
2023-05-07T19:18:01.832Z,1.90
2023-05-07T19:20:29.515Z,1.83
2023-05-07T19:22:56.880Z,1.58
2023-05-07T19:25:24.052Z,1.70
2023-05-07T19:27:51.431Z,1.92
2023-05-07T19:30:18.920Z,1.63
2023-05-07T19:32:46.244Z,1.90
2023-05-07T19:35:13.548Z,1.90
2023-05-07T19:37:40.919Z,1.80
2023-05-07T19:40:09.361Z,2.00
2023-05-07T19:42:36.553Z,2.42
2023-05-07T19:45:04.369Z,2.03
2023-05-07T19:47:31.506Z,1.98
2023-05-07T19:49:58.668Z,1.88
2023-05-07T19:52:25.887Z,2.35
2023-05-07T19:54:52.990Z,1.88
2023-05-07T19:57:20.134Z,2.00
2023-05-07T19:59:47.597Z,2.30
2023-05-07T20:02:15.419Z,1.80
2023-05-07T20:04:42.603Z,1.77
2023-05-07T20:07:09.774Z,1.67
2023-05-07T20:09:36.855Z,2.28
2023-05-07T20:12:04.112Z,1.90
2023-05-07T20:14:32.481Z,1.98
2023-05-07T20:16:59.701Z,2.50
2023-05-07T20:19:26.871Z,2.03
2023-05-07T20:21:54.079Z,2.10
2023-05-07T20:24:21.206Z,2.60
2023-05-07T20:26:48.405Z,2.60
2023-05-07T20:29:15.740Z,1.88
2023-05-07T20:31:42.968Z,2.17
2023-05-07T20:34:10.239Z,2.13
2023-05-07T20:36:37.748Z,2.10
2023-05-07T20:39:05.062Z,2.30
2023-05-07T20:41:32.230Z,2.10
2023-05-07T20:44:00.374Z,2.00
2023-05-07T20:46:27.739Z,2.38
2023-05-07T20:48:55.090Z,2.30
2023-05-07T20:51:22.157Z,2.50
2023-05-07T20:53:49.206Z,2.15
2023-05-07T20:56:16.496Z,2.40
2023-05-07T20:58:43.743Z,2.72
2023-05-07T21:01:10.960Z,1.90
2023-05-07T21:03:38.186Z,1.90
2023-05-07T21:06:05.301Z,2.08
2023-05-07T21:08:32.485Z,2.20
2023-05-07T21:10:59.747Z,2.08
2023-05-07T21:13:26.935Z,2.33
2023-05-07T21:15:54.086Z,2.17
2023-05-07T21:18:21.430Z,2.13
2023-05-07T21:20:48.548Z,2.33
2023-05-07T21:23:15.649Z,2.55
2023-05-07T21:25:47.062Z,2.45
2023-05-07T21:28:14.413Z,2.15
2023-05-07T21:30:41.492Z,2.30
2023-05-07T21:33:08.745Z,2.22
2023-05-07T21:35:36.462Z,2.67
2023-05-07T21:38:03.872Z,2.47
2023-05-07T21:40:31.015Z,2.05
2023-05-07T21:42:59.643Z,2.45
2023-05-07T21:45:26.896Z,2.20
2023-05-07T21:47:54.090Z,2.28
2023-05-07T21:50:21.959Z,2.40
2023-05-07T21:52:49.264Z,2.10
2023-05-07T21:55:18.269Z,2.08
2023-05-07T21:57:53.721Z,2.20
2023-05-07T22:00:29.552Z,1.95
2023-05-07T22:02:56.728Z,2.50
2023-05-07T22:05:23.920Z,2.25
2023-05-07T22:07:51.018Z,2.42
2023-05-07T22:10:22.485Z,2.47
2023-05-07T22:12:49.816Z,2.28
2023-05-07T22:15:17.101Z,2.40
2023-05-07T22:17:44.309Z,3.03
2023-05-07T22:20:12.081Z,2.60
2023-05-07T22:22:51.960Z,2.25
2023-05-07T22:25:20.138Z,2.35
2023-05-07T22:27:47.216Z,2.40
2023-05-07T22:30:14.681Z,2.33
2023-05-07T22:32:44.952Z,2.05
2023-05-07T22:35:12.422Z,3.03
2023-05-07T22:37:39.544Z,2.15
2023-05-07T22:40:07.103Z,2.28
2023-05-07T22:42:35.643Z,2.10
2023-05-07T22:45:03.084Z,1.98
2023-05-07T22:47:33.606Z,2.35
2023-05-07T22:50:01.035Z,2.40
2023-05-07T22:52:28.193Z,2.35
2023-05-07T22:54:55.328Z,2.38
2023-05-07T22:57:22.488Z,2.05
2023-05-07T22:59:49.811Z,2.67
2023-05-07T23:02:17.173Z,2.40
2023-05-07T23:04:44.237Z,2.15
2023-05-07T23:07:11.527Z,2.40
2023-05-07T23:09:38.814Z,2.30
2023-05-07T23:12:06.159Z,2.38
2023-05-07T23:14:33.267Z,2.35
2023-05-07T23:17:00.453Z,2.40
2023-05-07T23:19:27.588Z,2.25
2023-05-07T23:21:54.701Z,2.42
2023-05-07T23:24:21.787Z,2.55
2023-05-07T23:26:48.909Z,2.60
2023-05-07T23:29:16.081Z,2.72
2023-05-07T23:31:43.144Z,2.20
2023-05-07T23:34:10.228Z,2.10
2023-05-07T23:36:37.324Z,2.10
2023-05-07T23:39:04.622Z,2.10
2023-05-07T23:41:31.907Z,2.72
2023-05-07T23:43:59.084Z,2.83
2023-05-07T23:46:26.819Z,2.05
2023-05-07T23:48:53.934Z,2.00
2023-05-07T23:51:21.047Z,2.78
2023-05-07T23:53:48.207Z,2.05
2023-05-07T23:56:15.368Z,2.63
2023-05-07T23:58:42.606Z,2.20
